Terminal Aerodrome Forecast
Issued by NWS Blacksburg, VA

Current Version | Previous Version | Graphics & Text | Print | Product List | Glossary On
Versions: 1 2 3 4 5 6 7 8 9 10 11 12 13 14 15 16 17 18 19 20 21 22 23 24
000
FTUS41 KRNK 281530 AAB
TAFBLF
TAF AMD
KBLF 281530Z 2816/2912 30012G20KT P6SM -SHRA BKN007 OVC015
      TEMPO 2816/2817 5SM -SHRA OVC025
     FM281700 28010G21KT P6SM VCSH BKN030
     FM282000 29010G21KT P6SM OVC035
     FM290000 30007KT P6SM BKN035
     FM290300 31005KT P6SM OVC025=

USA.gov is the U.S. government's official web portal to all federal, state and local government web resources and services.